sensor_id;sensor_type;location;lat;lon;timestamp;pressure;altitude;pressure_sealevel;temperature;humidity
66479;BME280;53294;47.912;13.526;2022-11-27T00:01:11;97487.16;;;4.38;69.11
66479;BME280;53294;47.912;13.526;2022-11-27T00:03:39;97490.97;;;4.24;69.11
66479;BME280;53294;47.912;13.526;2022-11-27T00:06:07;97481.09;;;4.12;69.89
66479;BME280;53294;47.912;13.526;2022-11-27T00:08:34;97475.88;;;4.36;68.82
66479;BME280;53294;47.912;13.526;2022-11-27T00:11:12;97468.53;;;4.38;68.84
66479;BME280;53294;47.912;13.526;2022-11-27T00:13:39;97465.41;;;4.41;68.84
66479;BME280;53294;47.912;13.526;2022-11-27T00:16:07;97470.50;;;4.43;68.95
66479;BME280;53294;47.912;13.526;2022-11-27T00:18:34;97455.91;;;4.45;68.66
66479;BME280;53294;47.912;13.526;2022-11-27T00:21:13;97456.31;;;4.49;68.73
66479;BME280;53294;47.912;13.526;2022-11-27T00:23:40;97453.28;;;4.27;69.33
66479;BME280;53294;47.912;13.526;2022-11-27T00:26:07;97456.34;;;4.30;69.43
66479;BME280;53294;47.912;13.526;2022-11-27T00:28:34;97454.03;;;4.34;69.06
66479;BME280;53294;47.912;13.526;2022-11-27T00:31:04;97455.91;;;4.45;68.77
66479;BME280;53294;47.912;13.526;2022-11-27T00:33:32;97456.97;;;4.44;68.80
66479;BME280;53294;47.912;13.526;2022-11-27T00:36:03;97452.69;;;4.43;69.02
66479;BME280;53294;47.912;13.526;2022-11-27T00:38:30;97453.72;;;4.24;69.81
66479;BME280;53294;47.912;13.526;2022-11-27T00:41:05;97464.25;;;4.19;69.68
66479;BME280;53294;47.912;13.526;2022-11-27T00:43:33;97459.38;;;4.16;69.78
66479;BME280;53294;47.912;13.526;2022-11-27T00:46:20;97461.44;;;4.13;69.97
66479;BME280;53294;47.912;13.526;2022-11-27T00:48:54;97466.31;;;4.17;69.55
66479;BME280;53294;47.912;13.526;2022-11-27T00:51:22;97467.03;;;3.68;71.94
66479;BME280;53294;47.912;13.526;2022-11-27T00:53:49;97471.00;;;3.77;71.30
66479;BME280;53294;47.912;13.526;2022-11-27T00:56:26;97470.31;;;3.89;70.96
66479;BME280;53294;47.912;13.526;2022-11-27T00:58:53;97464.22;;;3.82;70.39
66479;BME280;53294;47.912;13.526;2022-11-27T01:01:23;97459.56;;;3.77;70.98
66479;BME280;53294;47.912;13.526;2022-11-27T01:03:50;97464.66;;;3.78;70.88
66479;BME280;53294;47.912;13.526;2022-11-27T01:06:18;97461.72;;;3.87;70.67
66479;BME280;53294;47.912;13.526;2022-11-27T01:08:45;97458.03;;;3.88;70.82
66479;BME280;53294;47.912;13.526;2022-11-27T01:11:15;97456.56;;;3.73;71.11
66479;BME280;53294;47.912;13.526;2022-11-27T01:13:42;97452.28;;;3.91;70.42
66479;BME280;53294;47.912;13.526;2022-11-27T01:16:17;97449.69;;;3.66;71.80
66479;BME280;53294;47.912;13.526;2022-11-27T01:18:45;97434.78;;;3.83;70.72
66479;BME280;53294;47.912;13.526;2022-11-27T01:21:14;97433.34;;;3.81;71.22
66479;BME280;53294;47.912;13.526;2022-11-27T01:23:41;97433.97;;;3.83;70.86
66479;BME280;53294;47.912;13.526;2022-11-27T01:26:08;97429.97;;;3.92;70.49
66479;BME280;53294;47.912;13.526;2022-11-27T01:28:35;97437.22;;;4.03;70.38
66479;BME280;53294;47.912;13.526;2022-11-27T01:31:12;97426.94;;;4.07;70.02
66479;BME280;53294;47.912;13.526;2022-11-27T01:33:39;97429.84;;;3.68;71.71
66479;BME280;53294;47.912;13.526;2022-11-27T01:36:07;97424.66;;;3.73;71.47
66479;BME280;53294;47.912;13.526;2022-11-27T01:38:34;97416.69;;;3.92;70.93
66479;BME280;53294;47.912;13.526;2022-11-27T01:41:04;97409.06;;;3.77;71.54
66479;BME280;53294;47.912;13.526;2022-11-27T01:46:36;97411.66;;;3.84;71.15
66479;BME280;53294;47.912;13.526;2022-11-27T01:54:08;97402.34;;;3.93;70.24
66479;BME280;53294;47.912;13.526;2022-11-27T01:56:36;97412.78;;;3.76;71.47
66479;BME280;53294;47.912;13.526;2022-11-27T01:59:04;97400.97;;;3.72;71.03
66479;BME280;53294;47.912;13.526;2022-11-27T02:01:30;97400.44;;;3.82;70.85
66479;BME280;53294;47.912;13.526;2022-11-27T02:03:58;97399.19;;;3.84;70.64
66479;BME280;53294;47.912;13.526;2022-11-27T02:06:27;97392.91;;;3.97;70.17
66479;BME280;53294;47.912;13.526;2022-11-27T02:08:54;97392.91;;;3.97;70.30
66479;BME280;53294;47.912;13.526;2022-11-27T02:11:35;97393.47;;;3.99;70.48
66479;BME280;53294;47.912;13.526;2022-11-27T02:14:25;97390.41;;;4.32;69.77
66479;BME280;53294;47.912;13.526;2022-11-27T02:16:57;97385.34;;;4.12;69.33
66479;BME280;53294;47.912;13.526;2022-11-27T02:27:42;97387.31;;;3.50;71.76
66479;BME280;53294;47.912;13.526;2022-11-27T02:30:13;97385.31;;;3.45;71.54
66479;BME280;53294;47.912;13.526;2022-11-27T02:32:48;97377.84;;;3.54;70.82
66479;BME280;53294;47.912;13.526;2022-11-27T02:35:43;97370.97;;;3.46;70.73
66479;BME280;53294;47.912;13.526;2022-11-27T02:38:20;97370.75;;;3.66;70.38
66479;BME280;53294;47.912;13.526;2022-11-27T02:43:35;97375.31;;;3.22;71.54
66479;BME280;53294;47.912;13.526;2022-11-27T02:46:04;97371.81;;;3.47;70.51
66479;BME280;53294;47.912;13.526;2022-11-27T02:48:36;97368.16;;;3.41;70.66
66479;BME280;53294;47.912;13.526;2022-11-27T02:51:05;97366.84;;;3.32;70.91
66479;BME280;53294;47.912;13.526;2022-11-27T02:53:35;97372.81;;;3.46;70.23
66479;BME280;53294;47.912;13.526;2022-11-27T02:56:10;97365.88;;;3.63;69.81
66479;BME280;53294;47.912;13.526;2022-11-27T02:58:39;97365.59;;;3.53;69.57
66479;BME280;53294;47.912;13.526;2022-11-27T03:01:08;97361.19;;;3.47;69.58
66479;BME280;53294;47.912;13.526;2022-11-27T03:03:40;97358.78;;;3.38;70.03
66479;BME280;53294;47.912;13.526;2022-11-27T03:06:11;97368.63;;;3.38;69.75
66479;BME280;53294;47.912;13.526;2022-11-27T03:08:45;97371.50;;;3.36;69.96
66479;BME280;53294;47.912;13.526;2022-11-27T03:11:16;97364.25;;;3.25;70.17
66479;BME280;53294;47.912;13.526;2022-11-27T03:13:46;97372.69;;;3.15;70.24
66479;BME280;53294;47.912;13.526;2022-11-27T03:21:34;97373.97;;;3.13;70.78
66479;BME280;53294;47.912;13.526;2022-11-27T03:24:04;97363.25;;;2.76;71.95
66479;BME280;53294;47.912;13.526;2022-11-27T03:26:32;97360.97;;;2.79;71.52
66479;BME280;53294;47.912;13.526;2022-11-27T03:28:59;97369.56;;;2.75;71.75
66479;BME280;53294;47.912;13.526;2022-11-27T03:31:29;97367.78;;;2.68;71.84
66479;BME280;53294;47.912;13.526;2022-11-27T03:33:56;97362.94;;;2.91;70.87
66479;BME280;53294;47.912;13.526;2022-11-27T03:36:23;97358.84;;;2.88;70.84
66479;BME280;53294;47.912;13.526;2022-11-27T03:38:51;97364.16;;;2.88;70.81
66479;BME280;53294;47.912;13.526;2022-11-27T03:44:16;97347.66;;;3.04;70.02
66479;BME280;53294;47.912;13.526;2022-11-27T03:47:19;97344.75;;;3.13;69.88
66479;BME280;53294;47.912;13.526;2022-11-27T03:50:01;97350.50;;;3.10;69.25
66479;BME280;53294;47.912;13.526;2022-11-27T03:55:54;97346.53;;;3.19;69.28
66479;BME280;53294;47.912;13.526;2022-11-27T03:58:37;97332.25;;;2.95;69.41
66479;BME280;53294;47.912;13.526;2022-11-27T04:01:09;97330.56;;;3.00;69.21
66479;BME280;53294;47.912;13.526;2022-11-27T04:03:37;97332.91;;;2.90;69.27
66479;BME280;53294;47.912;13.526;2022-11-27T04:06:04;97330.38;;;2.77;69.48
66479;BME280;53294;47.912;13.526;2022-11-27T04:08:30;97323.44;;;2.76;69.24
66479;BME280;53294;47.912;13.526;2022-11-27T04:10:57;97325.06;;;2.77;69.46
66479;BME280;53294;47.912;13.526;2022-11-27T04:13:24;97325.72;;;2.72;69.42
66479;BME280;53294;47.912;13.526;2022-11-27T04:15:50;97325.81;;;2.84;69.13
66479;BME280;53294;47.912;13.526;2022-11-27T04:18:17;97318.25;;;2.87;68.71
66479;BME280;53294;47.912;13.526;2022-11-27T04:20:44;97318.63;;;2.66;69.55
66479;BME280;53294;47.912;13.526;2022-11-27T04:23:10;97322.38;;;2.58;70.16
66479;BME280;53294;47.912;13.526;2022-11-27T04:25:37;97324.47;;;2.75;69.20
66479;BME280;53294;47.912;13.526;2022-11-27T04:28:03;97326.25;;;2.81;69.02
66479;BME280;53294;47.912;13.526;2022-11-27T04:30:30;97325.06;;;2.77;69.32
66479;BME280;53294;47.912;13.526;2022-11-27T04:32:57;97328.31;;;2.79;69.46
66479;BME280;53294;47.912;13.526;2022-11-27T04:35:23;97324.22;;;2.83;69.12
66479;BME280;53294;47.912;13.526;2022-11-27T04:37:50;97320.94;;;2.81;69.61
66479;BME280;53294;47.912;13.526;2022-11-27T04:40:17;97323.72;;;2.67;70.06
66479;BME280;53294;47.912;13.526;2022-11-27T04:42:43;97317.13;;;2.77;70.24
66479;BME280;53294;47.912;13.526;2022-11-27T04:45:10;97323.66;;;2.74;70.47
66479;BME280;53294;47.912;13.526;2022-11-27T04:47:37;97318.84;;;2.64;70.97
66479;BME280;53294;47.912;13.526;2022-11-27T04:50:04;97315.84;;;2.54;71.74
66479;BME280;53294;47.912;13.526;2022-11-27T04:52:31;97313.63;;;2.51;72.09
66479;BME280;53294;47.912;13.526;2022-11-27T04:54:57;97320.38;;;2.47;72.38
66479;BME280;53294;47.912;13.526;2022-11-27T04:57:26;97318.66;;;2.59;72.20
66479;BME280;53294;47.912;13.526;2022-11-27T04:59:53;97317.34;;;2.75;71.37
66479;BME280;53294;47.912;13.526;2022-11-27T05:02:19;97309.88;;;2.84;71.12
66479;BME280;53294;47.912;13.526;2022-11-27T05:04:46;97313.53;;;2.90;71.09
66479;BME280;53294;47.912;13.526;2022-11-27T05:07:13;97304.41;;;3.04;70.43
66479;BME280;53294;47.912;13.526;2022-11-27T05:09:39;97310.50;;;3.04;70.79
66479;BME280;53294;47.912;13.526;2022-11-27T05:12:06;97306.25;;;3.03;70.66
66479;BME280;53294;47.912;13.526;2022-11-27T05:14:33;97308.47;;;3.07;71.23
66479;BME280;53294;47.912;13.526;2022-11-27T05:17:00;97307.56;;;2.94;71.58
66479;BME280;53294;47.912;13.526;2022-11-27T05:19:28;97312.56;;;3.02;71.34
66479;BME280;53294;47.912;13.526;2022-11-27T05:21:56;97317.44;;;3.05;71.33
66479;BME280;53294;47.912;13.526;2022-11-27T05:24:25;97314.66;;;3.00;71.43
66479;BME280;53294;47.912;13.526;2022-11-27T05:26:52;97314.50;;;3.14;71.28
66479;BME280;53294;47.912;13.526;2022-11-27T05:29:19;97326.38;;;3.11;71.16
66479;BME280;53294;47.912;13.526;2022-11-27T05:31:46;97321.13;;;3.04;71.80
66479;BME280;53294;47.912;13.526;2022-11-27T05:34:13;97321.75;;;3.25;71.35
66479;BME280;53294;47.912;13.526;2022-11-27T05:36:40;97318.66;;;3.28;71.04
66479;BME280;53294;47.912;13.526;2022-11-27T05:39:08;97308.31;;;3.38;71.15
66479;BME280;53294;47.912;13.526;2022-11-27T05:41:37;97315.84;;;3.41;71.08
66479;BME280;53294;47.912;13.526;2022-11-27T05:44:04;97306.78;;;3.49;70.84
66479;BME280;53294;47.912;13.526;2022-11-27T05:46:31;97302.19;;;3.56;70.58
66479;BME280;53294;47.912;13.526;2022-11-27T05:48:58;97299.31;;;3.58;70.73
66479;BME280;53294;47.912;13.526;2022-11-27T05:51:25;97301.41;;;3.56;70.84
66479;BME280;53294;47.912;13.526;2022-11-27T05:53:51;97301.41;;;3.56;70.75
66479;BME280;53294;47.912;13.526;2022-11-27T05:56:18;97300.56;;;3.55;71.26
66479;BME280;53294;47.912;13.526;2022-11-27T05:58:46;97293.66;;;3.54;71.21
66479;BME280;53294;47.912;13.526;2022-11-27T06:03:30;97299.22;;;3.65;71.19
66479;BME280;53294;47.912;13.526;2022-11-27T06:05:57;97296.34;;;3.66;70.78
66479;BME280;53294;47.912;13.526;2022-11-27T06:08:24;97293.41;;;3.74;70.88
66479;BME280;53294;47.912;13.526;2022-11-27T06:10:50;97299.00;;;3.66;70.75
66479;BME280;53294;47.912;13.526;2022-11-27T06:13:17;97297.25;;;3.23;72.56
66479;BME280;53294;47.912;13.526;2022-11-27T06:15:43;97290.03;;;3.49;71.64
66479;BME280;53294;47.912;13.526;2022-11-27T06:18:10;97293.56;;;3.61;70.99
66479;BME280;53294;47.912;13.526;2022-11-27T06:20:37;97291.94;;;3.60;71.56
66479;BME280;53294;47.912;13.526;2022-11-27T06:23:10;97294.31;;;3.68;71.22
66479;BME280;53294;47.912;13.526;2022-11-27T06:25:36;97295.56;;;3.66;71.44
66479;BME280;53294;47.912;13.526;2022-11-27T06:28:03;97307.59;;;3.68;71.54
66479;BME280;53294;47.912;13.526;2022-11-27T06:30:29;97301.16;;;3.76;70.95
66479;BME280;53294;47.912;13.526;2022-11-27T06:32:56;97295.13;;;3.81;70.99
66479;BME280;53294;47.912;13.526;2022-11-27T06:35:23;97292.47;;;3.81;71.16
66479;BME280;53294;47.912;13.526;2022-11-27T06:37:49;97280.59;;;3.83;70.94
66479;BME280;53294;47.912;13.526;2022-11-27T06:40:16;97280.94;;;3.87;71.21
66479;BME280;53294;47.912;13.526;2022-11-27T06:42:43;97279.81;;;3.83;71.12
66479;BME280;53294;47.912;13.526;2022-11-27T06:45:10;97281.78;;;3.87;71.02
66479;BME280;53294;47.912;13.526;2022-11-27T06:47:36;97274.28;;;3.96;70.78
66479;BME280;53294;47.912;13.526;2022-11-27T06:50:03;97272.22;;;3.98;70.95
66479;BME280;53294;47.912;13.526;2022-11-27T06:52:30;97262.41;;;3.99;70.85
66479;BME280;53294;47.912;13.526;2022-11-27T06:55:04;97275.38;;;3.76;71.59
66479;BME280;53294;47.912;13.526;2022-11-27T06:57:30;97273.94;;;3.62;72.02
66479;BME280;53294;47.912;13.526;2022-11-27T06:59:57;97269.16;;;3.83;71.41
66479;BME280;53294;47.912;13.526;2022-11-27T07:02:24;97271.16;;;3.87;71.24
66479;BME280;53294;47.912;13.526;2022-11-27T07:04:50;97275.34;;;3.95;71.26
66479;BME280;53294;47.912;13.526;2022-11-27T07:07:17;97283.44;;;4.00;71.13
66479;BME280;53294;47.912;13.526;2022-11-27T07:09:44;97279.25;;;3.92;71.49
66479;BME280;53294;47.912;13.526;2022-11-27T07:12:10;97279.16;;;3.99;71.25
66479;BME280;53294;47.912;13.526;2022-11-27T07:14:37;97276.19;;;4.07;70.92
66479;BME280;53294;47.912;13.526;2022-11-27T07:17:04;97277.22;;;4.06;71.41
66479;BME280;53294;47.912;13.526;2022-11-27T07:19:31;97281.06;;;4.10;71.06
66479;BME280;53294;47.912;13.526;2022-11-27T07:21:57;97282.22;;;4.14;71.12
66479;BME280;53294;47.912;13.526;2022-11-27T07:24:24;97278.53;;;4.16;70.88
66479;BME280;53294;47.912;13.526;2022-11-27T07:26:50;97278.41;;;4.10;71.45
66479;BME280;53294;47.912;13.526;2022-11-27T07:29:17;97275.34;;;3.95;71.86
66479;BME280;53294;47.912;13.526;2022-11-27T07:31:44;97272.34;;;4.03;71.62
66479;BME280;53294;47.912;13.526;2022-11-27T07:34:10;97276.50;;;3.99;71.69
66479;BME280;53294;47.912;13.526;2022-11-27T07:36:46;97276.31;;;4.12;71.39
66479;BME280;53294;47.912;13.526;2022-11-27T07:39:13;97269.38;;;4.11;71.66
66479;BME280;53294;47.912;13.526;2022-11-27T07:41:39;97274.09;;;4.09;71.68
66479;BME280;53294;47.912;13.526;2022-11-27T07:44:06;97271.06;;;3.94;72.17
66479;BME280;53294;47.912;13.526;2022-11-27T07:46:32;97264.38;;;4.03;72.27
66479;BME280;53294;47.912;13.526;2022-11-27T07:48:59;97266.84;;;3.74;73.45
66479;BME280;53294;47.912;13.526;2022-11-27T07:51:26;97265.09;;;3.50;74.63
66479;BME280;53294;47.912;13.526;2022-11-27T07:53:53;97261.25;;;3.27;75.17
66479;BME280;53294;47.912;13.526;2022-11-27T07:56:20;97265.81;;;3.20;75.71
66479;BME280;53294;47.912;13.526;2022-11-27T07:58:47;97258.47;;;3.22;75.69
66479;BME280;53294;47.912;13.526;2022-11-27T08:01:16;97272.84;;;2.96;76.54
66479;BME280;53294;47.912;13.526;2022-11-27T08:03:43;97259.25;;;2.85;76.96
66479;BME280;53294;47.912;13.526;2022-11-27T08:06:21;97263.34;;;2.63;78.53
66479;BME280;53294;47.912;13.526;2022-11-27T08:08:49;97268.81;;;2.43;79.02
66479;BME280;53294;47.912;13.526;2022-11-27T08:11:18;97264.66;;;2.54;78.35
66479;BME280;53294;47.912;13.526;2022-11-27T08:13:45;97274.38;;;2.34;79.36
66479;BME280;53294;47.912;13.526;2022-11-27T08:16:12;97270.63;;;2.42;78.95
66479;BME280;53294;47.912;13.526;2022-11-27T08:18:38;97272.22;;;2.50;78.80
66479;BME280;53294;47.912;13.526;2022-11-27T08:21:05;97277.13;;;2.72;77.90
66479;BME280;53294;47.912;13.526;2022-11-27T08:23:32;97271.88;;;3.09;76.33
66479;BME280;53294;47.912;13.526;2022-11-27T08:25:58;97274.16;;;3.05;76.71
66479;BME280;53294;47.912;13.526;2022-11-27T08:28:25;97273.34;;;3.04;76.76
66479;BME280;53294;47.912;13.526;2022-11-27T08:30:57;97268.19;;;2.91;77.92
66479;BME280;53294;47.912;13.526;2022-11-27T08:33:24;97271.13;;;2.83;78.52
66479;BME280;53294;47.912;13.526;2022-11-27T08:35:50;97262.25;;;2.71;78.95
66479;BME280;53294;47.912;13.526;2022-11-27T08:38:17;97267.28;;;2.79;78.85
66479;BME280;53294;47.912;13.526;2022-11-27T08:40:44;97271.50;;;2.86;78.43
66479;BME280;53294;47.912;13.526;2022-11-27T08:43:11;97266.09;;;2.93;77.78
66479;BME280;53294;47.912;13.526;2022-11-27T08:45:38;97273.63;;;2.96;78.25
66479;BME280;53294;47.912;13.526;2022-11-27T08:48:05;97270.63;;;2.93;77.95
66479;BME280;53294;47.912;13.526;2022-11-27T08:50:32;97268.09;;;2.98;77.97
66479;BME280;53294;47.912;13.526;2022-11-27T08:52:59;97268.19;;;2.91;78.08
66479;BME280;53294;47.912;13.526;2022-11-27T08:55:25;97261.69;;;2.87;78.06
66479;BME280;53294;47.912;13.526;2022-11-27T08:57:52;97251.38;;;2.97;78.16
66479;BME280;53294;47.912;13.526;2022-11-27T09:00:19;97256.25;;;3.00;77.72
66479;BME280;53294;47.912;13.526;2022-11-27T09:02:53;97258.88;;;2.82;78.88
66479;BME280;53294;47.912;13.526;2022-11-27T09:05:19;97265.06;;;2.76;78.81
66479;BME280;53294;47.912;13.526;2022-11-27T09:07:46;97258.53;;;2.78;78.75
66479;BME280;53294;47.912;13.526;2022-11-27T09:10:12;97259.28;;;2.60;79.63
66479;BME280;53294;47.912;13.526;2022-11-27T09:12:39;97256.31;;;2.75;79.02
66479;BME280;53294;47.912;13.526;2022-11-27T09:15:12;97246.28;;;2.77;79.06
66479;BME280;53294;47.912;13.526;2022-11-27T09:17:39;97245.59;;;2.63;79.53
66479;BME280;53294;47.912;13.526;2022-11-27T09:20:06;97252.94;;;2.61;79.56
66479;BME280;53294;47.912;13.526;2022-11-27T09:22:34;97248.22;;;2.63;79.45
66479;BME280;53294;47.912;13.526;2022-11-27T09:25:01;97250.44;;;2.66;79.34
66479;BME280;53294;47.912;13.526;2022-11-27T09:27:28;97247.47;;;2.81;79.09
66479;BME280;53294;47.912;13.526;2022-11-27T09:29:54;97240.53;;;2.99;78.47
66479;BME280;53294;47.912;13.526;2022-11-27T09:32:22;97240.81;;;3.28;77.48
66479;BME280;53294;47.912;13.526;2022-11-27T09:34:51;97228.56;;;3.45;77.18
66479;BME280;53294;47.912;13.526;2022-11-27T09:37:18;97222.13;;;3.53;76.76
66479;BME280;53294;47.912;13.526;2022-11-27T09:39:45;97213.19;;;3.77;75.86
66479;BME280;53294;47.912;13.526;2022-11-27T09:42:45;97213.34;;;3.83;76.10
66479;BME280;53294;47.912;13.526;2022-11-27T09:45:12;97201.88;;;3.70;76.24
66479;BME280;53294;47.912;13.526;2022-11-27T09:47:45;97207.19;;;3.70;76.49
66479;BME280;53294;47.912;13.526;2022-11-27T09:50:17;97204.19;;;3.67;76.49
66479;BME280;53294;47.912;13.526;2022-11-27T09:55:23;97197.34;;;3.71;76.60
66479;BME280;53294;47.912;13.526;2022-11-27T09:57:58;97198.94;;;3.60;77.18
66479;BME280;53294;47.912;13.526;2022-11-27T10:00:27;97192.59;;;3.61;76.78
66479;BME280;53294;47.912;13.526;2022-11-27T10:02:54;97186.47;;;3.61;77.18
66479;BME280;53294;47.912;13.526;2022-11-27T10:05:27;97187.09;;;3.74;76.49
66479;BME280;53294;47.912;13.526;2022-11-27T10:15:47;97171.88;;;3.93;75.80
66479;BME280;53294;47.912;13.526;2022-11-27T10:18:38;97163.88;;;3.82;76.36
66479;BME280;53294;47.912;13.526;2022-11-27T10:21:37;97154.06;;;3.94;76.00
66479;BME280;53294;47.912;13.526;2022-11-27T10:24:16;97155.25;;;3.98;76.04
66479;BME280;53294;47.912;13.526;2022-11-27T10:26:48;97147.09;;;3.69;76.86
66479;BME280;53294;47.912;13.526;2022-11-27T10:29:27;97145.94;;;3.65;76.88
66479;BME280;53294;47.912;13.526;2022-11-27T10:31:59;97141.66;;;3.64;76.89
66479;BME280;53294;47.912;13.526;2022-11-27T10:34:39;97137.50;;;3.68;76.56
66479;BME280;53294;47.912;13.526;2022-11-27T10:37:20;97129.09;;;3.71;76.00
66479;BME280;53294;47.912;13.526;2022-11-27T10:39:53;97121.22;;;3.88;75.83
66479;BME280;53294;47.912;13.526;2022-11-27T10:44:57;97111.06;;;3.73;76.38
66479;BME280;53294;47.912;13.526;2022-11-27T10:47:26;97113.59;;;3.80;75.76
66479;BME280;53294;47.912;13.526;2022-11-27T10:49:59;97109.88;;;3.69;76.45
66479;BME280;53294;47.912;13.526;2022-11-27T10:52:25;97108.84;;;3.70;76.60
66479;BME280;53294;47.912;13.526;2022-11-27T10:54:56;97103.38;;;3.53;77.12
66479;BME280;53294;47.912;13.526;2022-11-27T10:57:43;97090.56;;;3.50;76.87
66479;BME280;53294;47.912;13.526;2022-11-27T11:00:22;97083.72;;;3.42;77.60
66479;BME280;53294;47.912;13.526;2022-11-27T11:03:01;97085.44;;;3.37;77.68
66479;BME280;53294;47.912;13.526;2022-11-27T11:05:30;97086.00;;;3.27;78.02
66479;BME280;53294;47.912;13.526;2022-11-27T11:08:18;97084.00;;;3.22;78.11
66479;BME280;53294;47.912;13.526;2022-11-27T11:10:56;97089.94;;;3.36;77.81
66479;BME280;53294;47.912;13.526;2022-11-27T11:13:25;97080.03;;;3.44;77.51
66479;BME280;53294;47.912;13.526;2022-11-27T11:16:12;97074.28;;;3.47;77.65
66479;BME280;53294;47.912;13.526;2022-11-27T11:18:53;97076.25;;;3.51;77.22
66479;BME280;53294;47.912;13.526;2022-11-27T11:21:29;97068.06;;;3.53;77.12
66479;BME280;53294;47.912;13.526;2022-11-27T11:26:52;97071.88;;;3.81;76.64
66479;BME280;53294;47.912;13.526;2022-11-27T11:29:35;97066.34;;;3.70;76.57
66479;BME280;53294;47.912;13.526;2022-11-27T11:32:08;97064.84;;;3.74;76.82
66479;BME280;53294;47.912;13.526;2022-11-27T11:34:41;97058.84;;;3.91;76.50
66479;BME280;53294;47.912;13.526;2022-11-27T11:37:38;97058.25;;;4.01;76.09
66479;BME280;53294;47.912;13.526;2022-11-27T11:40:24;97051.19;;;4.30;74.98
66479;BME280;53294;47.912;13.526;2022-11-27T11:45:20;97050.00;;;4.49;74.49
66479;BME280;53294;47.912;13.526;2022-11-27T11:47:53;97048.59;;;4.59;74.27
66479;BME280;53294;47.912;13.526;2022-11-27T11:50:31;97040.06;;;4.33;74.44
66479;BME280;53294;47.912;13.526;2022-11-27T11:53:17;97042.72;;;4.45;74.94
66479;BME280;53294;47.912;13.526;2022-11-27T11:58:55;97031.09;;;4.63;73.93
66479;BME280;53294;47.912;13.526;2022-11-27T12:09:39;97025.19;;;4.61;74.34
66479;BME280;53294;47.912;13.526;2022-11-27T12:14:46;97012.66;;;4.73;73.73
66479;BME280;53294;47.912;13.526;2022-11-27T12:31:32;96996.22;;;4.76;73.46
66479;BME280;53294;47.912;13.526;2022-11-27T12:44:41;96989.94;;;5.11;72.70
66479;BME280;53294;47.912;13.526;2022-11-27T12:47:23;96990.97;;;5.10;72.61
66479;BME280;53294;47.912;13.526;2022-11-27T12:49:54;96992.28;;;5.25;72.63
66479;BME280;53294;47.912;13.526;2022-11-27T12:52:28;96977.25;;;5.18;72.13
66479;BME280;53294;47.912;13.526;2022-11-27T12:55:26;96980.97;;;5.17;72.31
66479;BME280;53294;47.912;13.526;2022-11-27T12:58:01;96984.53;;;5.40;72.22
66479;BME280;53294;47.912;13.526;2022-11-27T13:00:34;96984.19;;;5.19;72.35
66479;BME280;53294;47.912;13.526;2022-11-27T13:06:09;96977.44;;;5.29;72.42
66479;BME280;53294;47.912;13.526;2022-11-27T13:08:45;96985.31;;;5.40;72.02
66479;BME280;53294;47.912;13.526;2022-11-27T13:11:19;96983.88;;;5.33;72.58
66479;BME280;53294;47.912;13.526;2022-11-27T13:13:51;96978.97;;;5.58;71.70
66479;BME280;53294;47.912;13.526;2022-11-27T13:16:20;96977.91;;;5.60;71.78
66479;BME280;53294;47.912;13.526;2022-11-27T13:18:56;96976.34;;;5.64;71.79
66479;BME280;53294;47.912;13.526;2022-11-27T13:21:28;96969.66;;;5.78;71.21
66479;BME280;53294;47.912;13.526;2022-11-27T13:23:59;96965.16;;;5.45;72.02
66479;BME280;53294;47.912;13.526;2022-11-27T13:26:38;96965.63;;;5.25;72.89
66479;BME280;53294;47.912;13.526;2022-11-27T13:32:03;96961.50;;;5.17;73.18
66479;BME280;53294;47.912;13.526;2022-11-27T13:34:35;96965.91;;;4.77;74.61
66479;BME280;53294;47.912;13.526;2022-11-27T13:37:08;96956.53;;;4.75;74.77
66479;BME280;53294;47.912;13.526;2022-11-27T13:39:44;96950.59;;;5.01;74.16
66479;BME280;53294;47.912;13.526;2022-11-27T13:44:41;96940.59;;;4.92;74.05
66479;BME280;53294;47.912;13.526;2022-11-27T13:47:14;96935.75;;;4.89;74.48
66479;BME280;53294;47.912;13.526;2022-11-27T13:49:43;96941.22;;;4.82;74.39
66479;BME280;53294;47.912;13.526;2022-11-27T13:52:13;96938.00;;;4.97;74.15
66479;BME280;53294;47.912;13.526;2022-11-27T13:54:55;96935.09;;;4.98;73.94
66479;BME280;53294;47.912;13.526;2022-11-27T13:57:24;96937.03;;;5.03;73.92
66479;BME280;53294;47.912;13.526;2022-11-27T14:02:21;96932.63;;;4.63;74.92
66479;BME280;53294;47.912;13.526;2022-11-27T14:04:49;96936.81;;;4.59;75.40
66479;BME280;53294;47.912;13.526;2022-11-27T14:07:22;96930.81;;;4.80;74.47
66479;BME280;53294;47.912;13.526;2022-11-27T14:09:53;96929.75;;;4.81;74.59
66479;BME280;53294;47.912;13.526;2022-11-27T14:12:26;96932.50;;;4.70;74.88
66479;BME280;53294;47.912;13.526;2022-11-27T14:17:46;96920.66;;;4.77;74.92
66479;BME280;53294;47.912;13.526;2022-11-27T14:22:51;96927.75;;;4.89;74.20
66479;BME280;53294;47.912;13.526;2022-11-27T14:25:38;96922.28;;;5.12;73.37
66479;BME280;53294;47.912;13.526;2022-11-27T14:30:48;96912.84;;;5.21;73.14
66479;BME280;53294;47.912;13.526;2022-11-27T14:33:18;96919.97;;;4.99;73.63
66479;BME280;53294;47.912;13.526;2022-11-27T14:36:05;96918.81;;;4.95;73.45
66479;BME280;53294;47.912;13.526;2022-11-27T14:38:34;96921.00;;;4.98;73.63
66479;BME280;53294;47.912;13.526;2022-11-27T14:41:09;96920.81;;;5.04;73.64
66479;BME280;53294;47.912;13.526;2022-11-27T14:43:36;96917.38;;;5.04;73.23
66479;BME280;53294;47.912;13.526;2022-11-27T14:46:04;96918.50;;;4.91;73.84
66479;BME280;53294;47.912;13.526;2022-11-27T14:48:44;96918.34;;;4.98;73.78
66479;BME280;53294;47.912;13.526;2022-11-27T14:51:16;96916.00;;;5.18;73.06
66479;BME280;53294;47.912;13.526;2022-11-27T14:53:46;96914.16;;;5.19;73.07
66479;BME280;53294;47.912;13.526;2022-11-27T14:56:14;96906.38;;;5.34;72.34
66479;BME280;53294;47.912;13.526;2022-11-27T14:58:49;96901.38;;;5.38;72.76
66479;BME280;53294;47.912;13.526;2022-11-27T15:01:35;96902.47;;;5.59;72.26
66479;BME280;53294;47.912;13.526;2022-11-27T15:04:33;96891.75;;;5.76;71.66
66479;BME280;53294;47.912;13.526;2022-11-27T15:07:04;96890.97;;;5.75;71.26